Alagon, Spain
Current Conditions -  °F | °C
As of 5:00 PM on Thursday 29 Jan 2015 (Local Time) from LEZG Reporting Station
Scattered Clouds Scattered Clouds  
Wind Chill: 57°   Ceiling: Unl
Heat Index: 57°   Visibility: 6mi
Dew Point: 39°   Wind: 30mph
Humidity: 51%   Direction: 270°W
Pressure: 29.62"   Gusts: 48mph
Location:  41.77°N, 1.12°W
Report Text: LEZG 291600Z 27026G42KT 9999 FEW040 SCT070 14/04 Q1003
Loading
Personal Weather Stations






























Interactive Weather Map New forecast layout! Learn more

10-Day Weather Forecast

Advertisements
Track Severe Weather on mobile